Time;durP1;ratioP1;P1;durP2;ratioP2;P2;SDS_P1;SDS_P2;PMS_P1;PMS_P2;Temp;Humidity;BMP_temperature;BMP_pressure;BME280_temperature;BME280_humidity;BME280_pressure;Samples;Min_cycle;Max_cycle;Signal;HPM_P1;HPM_P2
2022/01/04 00:01:53;;;;;;;13.43;2.63;;;23.60;99.90;;;;;;5017173;28;20022;-75
2022/01/04 00:04:20;;;;;;;6.53;1.75;;;23.70;99.90;;;;;;5017339;28;20197;-78
2022/01/04 00:06:47;;;;;;;9.93;1.45;;;23.70;99.90;;;;;;5017190;28;20026;-74
2022/01/04 00:09:15;;;;;;;8.60;1.33;;;23.70;99.90;;;;;;5017270;28;20079;-80
2022/01/04 00:14:19;;;;;;;6.18;1.98;;;23.60;99.90;;;;;;5017094;28;20026;-75
2022/01/04 00:16:47;;;;;;;10.55;2.38;;;23.30;99.90;;;;;;5017117;28;20014;-76
2022/01/04 00:19:14;;;;;;;9.20;2.25;;;23.10;99.90;;;;;;5017115;28;20113;-77
2022/01/04 00:21:42;;;;;;;13.95;1.52;;;23.00;99.90;;;;;;5017060;28;20029;-73
2022/01/04 00:24:09;;;;;;;10.90;1.92;;;23.00;99.90;;;;;;5016888;28;20034;-71
2022/01/04 00:26:37;;;;;;;7.05;1.73;;;23.00;99.90;;;;;;5016612;28;20042;-76
2022/01/04 00:29:04;;;;;;;7.68;2.25;;;23.20;99.90;;;;;;5016886;28;20021;-81
2022/01/04 00:31:32;;;;;;;15.88;2.15;;;23.20;99.90;;;;;;5016970;28;20022;-75
2022/01/04 00:33:59;;;;;;;7.30;1.63;;;23.30;99.90;;;;;;5016749;28;20061;-74
2022/01/04 00:36:26;;;;;;;7.80;1.95;;;23.30;99.90;;;;;;5016970;28;20045;-76
2022/01/04 00:38:54;;;;;;;13.00;2.40;;;23.40;99.90;;;;;;5016701;28;20036;-76
2022/01/04 00:41:21;;;;;;;8.98;1.70;;;23.50;99.90;;;;;;5016614;28;20378;-71
2022/01/04 00:43:48;;;;;;;5.15;1.40;;;23.60;99.90;;;;;;5016439;28;20038;-79
2022/01/04 00:46:17;;;;;;;10.85;1.75;;;23.70;99.90;;;;;;5016761;28;20493;-77
2022/01/04 00:51:30;;;;;;;2.90;0.82;;;24.30;99.90;;;;;;5016812;28;20490;-76
2022/01/04 00:53:58;;;;;;;4.20;1.40;;;24.70;99.90;;;;;;5016360;28;20030;-78
2022/01/04 00:56:25;;;;;;;10.48;1.98;;;25.20;99.90;;;;;;5016544;28;20570;-79
2022/01/04 00:58:53;;;;;;;6.47;1.85;;;25.10;99.90;;;;;;5016423;28;20018;-76
2022/01/04 01:01:21;;;;;;;8.50;1.77;;;24.80;99.90;;;;;;5016419;28;20084;-77
2022/01/04 01:03:48;;;;;;;5.22;1.50;;;24.50;99.90;;;;;;5015742;28;20038;-76
2022/01/04 01:06:15;;;;;;;11.88;1.80;;;24.60;99.90;;;;;;5016195;28;20093;-77
2022/01/04 01:08:43;;;;;;;8.13;1.52;;;24.70;99.90;;;;;;5016292;28;20038;-76
2022/01/04 01:11:10;;;;;;;9.65;1.95;;;24.80;99.90;;;;;;5016088;28;20019;-72
2022/01/04 01:13:39;;;;;;;9.07;1.40;;;25.00;99.90;;;;;;5016112;28;20026;-73
2022/01/04 01:16:07;;;;;;;6.13;1.20;;;25.20;99.90;;;;;;5016083;28;20109;-75
2022/01/04 01:18:35;;;;;;;9.02;1.67;;;25.00;99.90;;;;;;5015699;28;20030;-71
2022/01/04 01:21:05;;;;;;;4.75;1.10;;;24.90;99.90;;;;;;5015968;28;20464;-81
2022/01/04 01:23:34;;;;;;;6.70;1.63;;;24.90;99.90;;;;;;5015885;28;20034;-74
2022/01/04 01:26:03;;;;;;;7.03;1.58;;;24.90;99.90;;;;;;5015729;28;20129;-74
2022/01/04 01:28:31;;;;;;;12.27;1.83;;;24.90;99.90;;;;;;5016145;28;20030;-73
2022/01/04 01:30:58;;;;;;;13.07;1.55;;;24.80;99.90;;;;;;5015812;28;20022;-79
2022/01/04 01:33:27;;;;;;;6.22;1.52;;;24.60;99.90;;;;;;5015433;28;20026;-74
2022/01/04 01:35:58;;;;;;;11.02;2.38;;;24.50;99.90;;;;;;5015597;28;20037;-77
2022/01/04 01:38:26;;;;;;;8.13;1.83;;;24.30;99.90;;;;;;5015699;28;20030;-75
2022/01/04 01:40:53;;;;;;;8.52;1.63;;;24.20;99.90;;;;;;5015704;28;20474;-74
2022/01/04 01:43:23;;;;;;;19.35;2.60;;;24.20;99.90;;;;;;5015514;28;20038;-76
2022/01/04 01:45:53;;;;;;;6.40;1.70;;;24.00;99.90;;;;;;5015408;28;20030;-71
2022/01/04 01:48:20;;;;;;;12.35;2.08;;;24.10;99.90;;;;;;5015307;28;20022;-75
2022/01/04 01:50:48;;;;;;;11.93;1.88;;;24.30;99.90;;;;;;5015461;28;20021;-74
2022/01/04 01:53:16;;;;;;;6.55;1.85;;;24.20;99.90;;;;;;5015343;28;20130;-74
2022/01/04 01:55:43;;;;;;;8.48;2.00;;;24.20;99.90;;;;;;5015434;28;20022;-75
2022/01/04 01:58:11;;;;;;;8.30;2.10;;;24.30;99.90;;;;;;5015141;28;20030;-74
2022/01/04 02:00:39;;;;;;;11.35;1.73;;;24.40;99.90;;;;;;5015076;28;20034;-74
2022/01/04 02:03:06;;;;;;;6.40;1.98;;;24.40;99.90;;;;;;5014964;28;20124;-71
2022/01/04 02:05:33;;;;;;;5.78;1.70;;;24.50;99.90;;;;;;5015079;28;20112;-74
2022/01/04 02:08:03;;;;;;;9.35;2.10;;;24.50;99.90;;;;;;5014967;28;20018;-75
2022/01/04 02:10:31;;;;;;;11.68;1.70;;;24.70;99.90;;;;;;5015235;28;20479;-70
2022/01/04 02:12:58;;;;;;;10.48;1.95;;;25.20;99.90;;;;;;5014893;28;20026;-74
2022/01/04 02:15:30;;;;;;;9.18;1.15;;;25.10;99.90;;;;;;5014529;28;20034;-73
2022/01/04 02:17:57;;;;;;;5.93;1.27;;;25.30;99.90;;;;;;5014589;28;20026;-70
2022/01/04 02:20:25;;;;;;;7.93;1.38;;;25.20;99.90;;;;;;5014750;28;20080;-71
2022/01/04 02:22:54;;;;;;;6.30;1.38;;;25.20;99.90;;;;;;5014876;28;20029;-74
2022/01/04 02:25:21;;;;;;;6.50;1.40;;;25.50;99.90;;;;;;5014467;28;20038;-75
2022/01/04 02:27:49;;;;;;;6.80;1.42;;;26.10;99.90;;;;;;5014509;28;20121;-77
2022/01/04 02:30:19;;;;;;;5.85;1.83;;;26.40;99.90;;;;;;5013353;28;20053;-75
2022/01/04 02:32:48;;;;;;;10.60;1.75;;;26.50;99.90;;;;;;5014427;28;20018;-74
2022/01/04 02:35:18;;;;;;;3.22;1.13;;;26.30;99.90;;;;;;5014330;28;20026;-76
2022/01/04 02:37:46;;;;;;;8.10;1.58;;;25.90;99.90;;;;;;5014496;28;20033;-75
2022/01/04 02:40:13;;;;;;;11.32;1.75;;;25.90;99.90;;;;;;5014525;28;20040;-74
2022/01/04 02:42:42;;;;;;;14.07;2.22;;;26.20;99.90;;;;;;5014245;28;20025;-73
2022/01/04 02:45:10;;;;;;;6.47;2.13;;;26.30;99.90;;;;;;5014402;28;20034;-74
2022/01/04 02:47:37;;;;;;;13.57;1.35;;;25.90;99.90;;;;;;5014290;28;20049;-76
2022/01/04 02:50:06;;;;;;;7.65;1.90;;;25.50;99.90;;;;;;5014371;28;20036;-77
2022/01/04 02:52:34;;;;;;;10.65;2.22;;;25.50;99.90;;;;;;5014222;28;20368;-74
2022/01/04 02:55:06;;;;;;;9.63;1.80;;;25.50;99.90;;;;;;5014184;28;20072;-77
2022/01/04 02:57:34;;;;;;;9.00;1.73;;;25.80;99.90;;;;;;5014186;28;20418;-77
2022/01/04 03:00:04;;;;;;;7.43;1.67;;;26.10;99.90;;;;;;5014304;28;20026;-70
2022/01/04 03:02:31;;;;;;;10.80;2.10;;;26.10;99.90;;;;;;5014058;28;20533;-71
2022/01/04 03:04:58;;;;;;;10.25;1.75;;;26.00;99.90;;;;;;5013902;28;20061;-72
2022/01/04 03:07:26;;;;;;;4.80;1.50;;;26.20;99.90;;;;;;5013932;28;20022;-74
2022/01/04 03:09:53;;;;;;;9.60;1.70;;;26.50;99.90;;;;;;5013958;28;20125;-81
2022/01/04 03:12:21;;;;;;;4.85;1.20;;;26.30;99.90;;;;;;5013921;28;20026;-73
2022/01/04 03:14:49;;;;;;;8.68;1.83;;;25.60;99.90;;;;;;5014000;28;20022;-73
2022/01/04 03:17:16;;;;;;;9.50;1.75;;;25.70;99.90;;;;;;5013760;28;20022;-75
2022/01/04 03:19:43;;;;;;;12.02;1.77;;;26.30;99.90;;;;;;5012648;28;20049;-73
2022/01/04 03:22:11;;;;;;;10.25;1.80;;;26.80;99.90;;;;;;5013618;28;20072;-70
2022/01/04 03:24:38;;;;;;;9.10;1.42;;;26.90;99.90;;;;;;5013649;28;20032;-77
2022/01/04 03:27:06;;;;;;;8.68;2.25;;;26.90;99.90;;;;;;5013079;28;20411;-75
2022/01/04 03:29:33;;;;;;;7.65;1.80;;;27.30;99.90;;;;;;5014252;28;20048;-76
2022/01/04 03:32:00;;;;;;;7.43;1.73;;;27.40;99.90;;;;;;5013549;28;20105;-73
2022/01/04 03:34:28;;;;;;;7.97;1.73;;;27.40;99.90;;;;;;5013532;28;20479;-75
2022/01/04 03:36:55;;;;;;;8.00;1.42;;;26.90;99.90;;;;;;5013733;28;20090;-73
2022/01/04 03:39:22;;;;;;;7.00;1.38;;;26.80;99.90;;;;;;5013605;28;20021;-77
2022/01/04 03:41:51;;;;;;;5.03;1.65;;;26.70;99.90;;;;;;5013687;28;20525;-73
2022/01/04 03:44:20;;;;;;;8.65;1.60;;;26.00;99.90;;;;;;5013609;28;20479;-71
2022/01/04 03:46:54;;;;;;;8.85;2.10;;;26.10;99.90;;;;;;5013246;28;20034;-72
2022/01/04 03:49:21;;;;;;;10.70;1.45;;;26.50;99.90;;;;;;5013588;28;20101;-76
2022/01/04 03:51:49;;;;;;;4.88;1.13;;;26.90;99.90;;;;;;5013645;28;20459;-70
2022/01/04 03:54:17;;;;;;;6.22;1.73;;;26.90;99.90;;;;;;5013505;28;20022;-73
2022/01/04 03:56:44;;;;;;;9.30;1.20;;;26.50;99.90;;;;;;5013527;28;20566;-74
2022/01/04 03:59:11;;;;;;;6.13;1.45;;;26.40;99.90;;;;;;5013381;28;20112;-72
2022/01/04 04:01:39;;;;;;;5.10;1.17;;;25.80;99.90;;;;;;5013394;28;20069;-73
2022/01/04 04:04:06;;;;;;;6.53;2.03;;;26.00;99.90;;;;;;5013210;28;20433;-74
2022/01/04 04:06:33;;;;;;;9.63;1.77;;;26.30;99.90;;;;;;5013449;28;20534;-70
2022/01/04 04:09:01;;;;;;;7.93;1.85;;;26.40;99.90;;;;;;5013509;28;20104;-74
2022/01/04 04:11:28;;;;;;;6.50;1.25;;;26.60;99.90;;;;;;5013290;28;20049;-79
2022/01/04 04:13:56;;;;;;;6.10;1.35;;;26.20;99.90;;;;;;5013224;28;20382;-73
2022/01/04 04:16:23;;;;;;;7.03;1.80;;;25.50;99.90;;;;;;5013209;28;20391;-75
2022/01/04 04:18:50;;;;;;;9.63;1.67;;;25.10;99.90;;;;;;5013562;28;20022;-70
2022/01/04 04:21:18;;;;;;;7.03;1.55;;;25.40;99.90;;;;;;5013121;28;20022;-75
2022/01/04 04:23:45;;;;;;;8.82;1.88;;;26.10;99.90;;;;;;5012787;28;20045;-74
2022/01/04 04:26:12;;;;;;;6.70;1.75;;;26.20;99.90;;;;;;5012869;28;20049;-70
2022/01/04 04:32:02;;;;;;;6.85;1.52;;;25.50;99.90;;;;;;5013461;28;20036;-71
2022/01/04 04:34:29;;;;;;;5.38;1.77;;;25.40;99.90;;;;;;5012909;28;20024;-73
2022/01/04 04:36:56;;;;;;;9.95;2.03;;;25.40;99.90;;;;;;5013258;28;20061;-76
2022/01/04 04:42:45;;;;;;;3.15;1.00;;;26.20;99.90;;;;;;5017034;28;20379;-73
2022/01/04 04:45:13;;;;;;;7.40;1.40;;;26.00;99.90;;;;;;5016552;28;20091;-74
2022/01/04 04:47:40;;;;;;;7.38;1.67;;;25.50;99.90;;;;;;5016469;28;20025;-71
2022/01/04 04:50:08;;;;;;;7.38;2.05;;;25.20;99.90;;;;;;5016627;28;20037;-72
2022/01/04 04:52:35;;;;;;;15.43;1.60;;;25.00;99.90;;;;;;5016425;28;20026;-73
2022/01/04 04:55:04;;;;;;;7.18;1.58;;;24.90;99.90;;;;;;5016406;28;20109;-75
2022/01/04 04:57:32;;;;;;;10.35;1.67;;;24.90;99.90;;;;;;5016384;28;20391;-71
2022/01/04 04:59:59;;;;;;;8.05;1.83;;;24.80;99.90;;;;;;5016201;28;20026;-72
2022/01/04 05:02:27;;;;;;;8.02;1.65;;;24.70;99.90;;;;;;5016314;28;20026;-75
2022/01/04 05:04:54;;;;;;;7.60;1.92;;;24.40;99.90;;;;;;5016123;28;20037;-70
2022/01/04 05:07:21;;;;;;;8.77;1.60;;;24.40;99.90;;;;;;5016142;28;20024;-73
2022/01/04 05:09:49;;;;;;;6.82;1.40;;;24.60;99.90;;;;;;5016586;28;20053;-74
2022/01/04 05:12:16;;;;;;;9.95;1.58;;;24.80;99.90;;;;;;5016143;28;20029;-70
2022/01/04 05:14:46;;;;;;;8.32;1.63;;;24.80;99.90;;;;;;5015989;28;20038;-72
2022/01/04 05:17:17;;;;;;;5.65;1.58;;;24.90;99.90;;;;;;5016073;28;20033;-73
2022/01/04 05:19:44;;;;;;;13.52;1.38;;;24.80;99.90;;;;;;5015958;28;20041;-74
2022/01/04 05:22:12;;;;;;;12.48;1.45;;;25.00;99.90;;;;;;5016155;28;20025;-74
2022/01/04 05:24:39;;;;;;;5.22;1.15;;;25.00;99.90;;;;;;5015613;28;20048;-73
2022/01/04 05:27:07;;;;;;;5.57;0.90;;;24.70;99.90;;;;;;5015494;28;20387;-74
2022/01/04 05:29:34;;;;;;;8.60;1.40;;;24.80;99.90;;;;;;5015908;28;20101;-73
2022/01/04 05:32:02;;;;;;;4.15;1.10;;;24.80;99.90;;;;;;5015602;28;20096;-77
2022/01/04 05:34:32;;;;;;;6.25;1.35;;;24.70;99.90;;;;;;5015859;28;20026;-72
2022/01/04 05:37:00;;;;;;;8.00;1.52;;;24.60;99.90;;;;;;5015549;28;20117;-71
2022/01/04 05:39:27;;;;;;;4.93;1.23;;;24.70;99.90;;;;;;5015752;28;20018;-72
2022/01/04 05:41:55;;;;;;;9.88;1.20;;;24.90;99.90;;;;;;5015607;28;20025;-75
2022/01/04 05:44:22;;;;;;;5.05;1.13;;;24.90;99.90;;;;;;5015510;28;20383;-75
2022/01/04 05:46:49;;;;;;;8.10;1.63;;;25.00;99.90;;;;;;5015358;28;20153;-74
2022/01/04 05:49:17;;;;;;;4.90;1.20;;;25.40;99.90;;;;;;5015567;28;20375;-76
2022/01/04 05:51:44;;;;;;;5.50;1.67;;;25.50;99.90;;;;;;5015340;28;20018;-72
2022/01/04 05:54:11;;;;;;;8.93;1.30;;;25.20;99.90;;;;;;5015336;28;20026;-75
2022/01/04 05:56:39;;;;;;;5.50;1.00;;;25.20;99.90;;;;;;5015326;28;20018;-74
2022/01/04 05:59:06;;;;;;;6.45;1.58;;;25.40;99.90;;;;;;5015482;28;20022;-74
2022/01/04 06:01:33;;;;;;;6.70;1.27;;;25.40;99.90;;;;;;5015314;28;20026;-71
2022/01/04 06:04:00;;;;;;;4.60;1.27;;;25.40;99.90;;;;;;5015128;28;20498;-72
2022/01/04 06:06:28;;;;;;;9.15;1.42;;;25.10;99.90;;;;;;5015025;28;20422;-76
2022/01/04 06:08:55;;;;;;;9.02;1.33;;;25.00;99.90;;;;;;5015154;28;20526;-74
2022/01/04 06:11:43;;;;;;;8.23;1.20;;;24.80;99.90;;;;;;5015117;28;20028;-75
2022/01/04 06:16:57;;;;;;;9.07;1.35;;;24.90;99.90;;;;;;5015299;28;20048;-73
2022/01/04 06:19:25;;;;;;;4.13;0.77;;;24.90;99.90;;;;;;5015054;28;20034;-75
2022/01/04 06:21:52;;;;;;;6.15;1.48;;;25.10;99.90;;;;;;5014934;28;20026;-76
2022/01/04 06:24:20;;;;;;;3.75;1.30;;;25.00;99.90;;;;;;5014547;28;20084;-76
2022/01/04 06:26:47;;;;;;;5.63;1.10;;;24.90;99.90;;;;;;5014385;28;20469;-72
2022/01/04 06:29:16;;;;;;;6.72;0.90;;;24.70;99.90;;;;;;5014636;28;20084;-74
2022/01/04 06:31:44;;;;;;;7.88;1.30;;;24.60;99.90;;;;;;5014737;28;20395;-76
2022/01/04 06:34:12;;;;;;;8.45;2.10;;;24.90;99.90;;;;;;5015018;28;20018;-75
2022/01/04 06:36:39;;;;;;;7.20;1.45;;;24.70;99.90;;;;;;5014666;28;20034;-70
2022/01/04 06:39:07;;;;;;;12.00;1.98;;;25.00;99.90;;;;;;5014641;28;20049;-70
2022/01/04 06:41:34;;;;;;;10.85;1.77;;;25.20;99.90;;;;;;5014364;28;20117;-74
2022/01/04 06:44:02;;;;;;;6.22;1.77;;;25.00;99.90;;;;;;5014682;28;20065;-73
2022/01/04 06:46:29;;;;;;;7.22;1.30;;;25.20;99.90;;;;;;5014176;28;20022;-71
2022/01/04 06:48:57;;;;;;;2.30;1.05;;;25.70;99.90;;;;;;5014449;28;20026;-74
2022/01/04 06:51:24;;;;;;;3.45;1.23;;;25.50;99.90;;;;;;5014400;28;20026;-73
2022/01/04 06:53:51;;;;;;;3.88;1.08;;;25.10;99.90;;;;;;5014352;28;20489;-73
2022/01/04 06:56:19;;;;;;;4.90;1.48;;;24.90;99.90;;;;;;5014260;28;20490;-72
2022/01/04 06:58:46;;;;;;;6.50;1.30;;;25.30;99.90;;;;;;5012837;28;20436;-75
2022/01/04 07:01:13;;;;;;;5.90;1.58;;;25.50;99.90;;;;;;5014056;28;20030;-71
2022/01/04 07:03:40;;;;;;;6.30;1.25;;;25.40;99.90;;;;;;5013605;28;20037;-70
2022/01/04 07:06:08;;;;;;;7.00;1.30;;;25.20;99.90;;;;;;5013962;28;20058;-70
2022/01/04 07:08:35;;;;;;;4.25;1.15;;;25.40;99.90;;;;;;5013986;28;20022;-75
2022/01/04 07:11:03;;;;;;;3.25;0.90;;;25.40;99.90;;;;;;5014055;28;20030;-70
2022/01/04 07:13:31;;;;;;;6.70;1.45;;;25.10;99.90;;;;;;5013872;28;20057;-72
2022/01/04 07:15:58;;;;;;;4.88;1.15;;;25.00;99.90;;;;;;5013994;28;20025;-74
2022/01/04 07:18:25;;;;;;;6.75;1.00;;;24.80;99.90;;;;;;5014056;28;20430;-75
2022/01/04 07:20:53;;;;;;;4.40;1.50;;;24.60;99.90;;;;;;5013972;28;20371;-74
2022/01/04 07:23:22;;;;;;;5.07;1.38;;;24.50;99.90;;;;;;5013883;28;20029;-73
2022/01/04 07:25:49;;;;;;;5.43;1.55;;;24.40;99.90;;;;;;5013433;28;20033;-71
2022/01/04 07:28:17;;;;;;;4.57;1.08;;;24.60;99.90;;;;;;5013770;28;20017;-72
2022/01/04 07:30:44;;;;;;;8.23;1.92;;;24.60;99.90;;;;;;5013634;28;20157;-74
2022/01/04 07:33:12;;;;;;;4.20;0.95;;;24.40;99.90;;;;;;5013606;28;20022;-73
2022/01/04 07:35:40;;;;;;;5.05;1.15;;;24.40;99.90;;;;;;5013536;28;20054;-70
2022/01/04 07:38:07;;;;;;;6.82;1.80;;;24.20;99.90;;;;;;5013662;28;20553;-74
2022/01/04 07:40:34;;;;;;;9.68;1.20;;;24.30;99.90;;;;;;5013536;28;20036;-75
2022/01/04 07:43:02;;;;;;;4.85;1.10;;;24.30;99.90;;;;;;5013510;28;20022;-72
2022/01/04 07:45:33;;;;;;;4.70;1.30;;;24.40;99.90;;;;;;5013350;28;20045;-78
2022/01/04 07:48:01;;;;;;;3.72;0.82;;;24.50;99.90;;;;;;5013563;28;20104;-74
2022/01/04 07:50:29;;;;;;;2.55;0.80;;;24.70;99.90;;;;;;5013540;28;20085;-74
2022/01/04 07:52:56;;;;;;;6.63;1.20;;;25.10;99.90;;;;;;5013434;28;20022;-74
2022/01/04 07:55:23;;;;;;;4.88;0.90;;;24.70;99.90;;;;;;5013533;28;20022;-74
2022/01/04 07:57:51;;;;;;;3.83;1.48;;;24.60;99.90;;;;;;5013332;28;20033;-74
2022/01/04 08:00:20;;;;;;;3.50;1.35;;;24.50;99.90;;;;;;5013345;28;20475;-75
2022/01/04 08:02:47;;;;;;;5.07;1.50;;;24.30;99.90;;;;;;5012762;28;20684;-74
2022/01/04 08:05:15;;;;;;;4.03;0.85;;;24.10;99.90;;;;;;5013226;28;20045;-75
2022/01/04 08:07:42;;;;;;;4.70;1.02;;;23.90;99.90;;;;;;5013270;28;20054;-74
2022/01/04 08:10:10;;;;;;;4.00;0.98;;;23.90;99.90;;;;;;4998827;28;20369;-70
2022/01/04 08:12:38;;;;;;;6.32;1.60;;;23.80;99.90;;;;;;4974109;28;20070;-70
2022/01/04 08:15:06;;;;;;;4.57;1.20;;;23.70;99.90;;;;;;4975858;28;20027;-75
2022/01/04 08:17:34;;;;;;;4.32;1.02;;;23.60;99.90;;;;;;4991178;28;20036;-74
2022/01/04 08:20:02;;;;;;;5.60;1.40;;;23.40;99.90;;;;;;4994822;28;20026;-76
2022/01/04 08:22:32;;;;;;;4.75;0.90;;;23.30;99.90;;;;;;4977608;28;20073;-76
2022/01/04 08:25:10;;;;;;;4.20;1.05;;;23.30;99.90;;;;;;4977568;28;20050;-75
2022/01/04 08:27:37;;;;;;;5.47;1.02;;;23.20;99.90;;;;;;4977546;28;20078;-73
2022/01/04 08:30:07;;;;;;;3.83;1.02;;;23.20;99.90;;;;;;4977222;28;20034;-75
2022/01/04 08:32:35;;;;;;;3.55;1.40;;;23.10;99.90;;;;;;4977569;28;20034;-74
2022/01/04 08:35:02;;;;;;;5.15;0.98;;;23.10;99.90;;;;;;4977505;28;20081;-76
2022/01/04 08:37:30;;;;;;;11.13;0.90;;;23.00;99.90;;;;;;4977476;28;20022;-76
2022/01/04 08:39:57;;;;;;;14.13;1.73;;;23.00;99.90;;;;;;4977413;28;20094;-74
2022/01/04 08:42:25;;;;;;;3.00;1.17;;;22.90;99.90;;;;;;4976530;28;20031;-76
2022/01/04 08:44:55;;;;;;;2.33;0.63;;;22.90;99.90;;;;;;4976777;28;20031;-72
2022/01/04 08:47:23;;;;;;;5.57;0.90;;;22.90;99.90;;;;;;4976758;28;20054;-76
2022/01/04 08:49:50;;;;;;;7.28;1.10;;;22.80;99.90;;;;;;4976693;28;20086;-74
2022/01/04 08:52:18;;;;;;;6.90;1.17;;;22.70;99.90;;;;;;4976629;28;20014;-75
2022/01/04 08:54:46;;;;;;;5.13;1.30;;;22.70;99.90;;;;;;4976641;28;20090;-73
2022/01/04 08:57:14;;;;;;;6.05;1.35;;;22.60;99.90;;;;;;4976626;28;20041;-73
2022/01/04 08:59:41;;;;;;;8.25;0.90;;;22.60;99.90;;;;;;4976080;28;20468;-73
2022/01/04 09:02:08;;;;;;;4.55;0.75;;;22.50;99.90;;;;;;4975132;28;20034;-72
2022/01/04 09:04:36;;;;;;;6.80;1.50;;;22.50;99.90;;;;;;4976255;28;20026;-72
2022/01/04 09:07:04;;;;;;;4.15;1.05;;;22.50;99.90;;;;;;4976006;28;20105;-73
2022/01/04 09:09:31;;;;;;;11.18;1.08;;;22.50;99.90;;;;;;4976021;28;20034;-76
2022/01/04 09:11:59;;;;;;;5.43;0.90;;;22.50;99.90;;;;;;4976404;28;20463;-77
2022/01/04 09:14:40;;;;;;;9.52;1.88;;;22.60;99.90;;;;;;4975998;28;20130;-76
2022/01/04 09:19:54;;;;;;;8.43;1.27;;;22.50;99.90;;;;;;4976313;28;20562;-73
2022/01/04 09:22:22;;;;;;;7.22;1.52;;;22.50;99.90;;;;;;4975951;28;20026;-75
2022/01/04 09:24:50;;;;;;;7.82;1.42;;;22.40;99.90;;;;;;4974386;28;20035;-77
2022/01/04 09:27:18;;;;;;;3.92;1.33;;;22.40;99.90;;;;;;4975776;28;20055;-75
2022/01/04 09:29:45;;;;;;;10.05;2.17;;;22.30;99.90;;;;;;4975982;28;20027;-71
2022/01/04 09:32:16;;;;;;;6.00;1.58;;;22.30;99.90;;;;;;4976048;28;20085;-70
2022/01/04 09:34:44;;;;;;;10.20;1.10;;;22.20;99.90;;;;;;4976290;28;20034;-70
2022/01/04 09:37:12;;;;;;;8.55;1.70;;;22.20;99.90;;;;;;4975986;28;20027;-70
2022/01/04 09:39:40;;;;;;;3.40;0.93;;;22.20;99.90;;;;;;4975366;28;20499;-68
2022/01/04 09:42:08;;;;;;;8.95;1.25;;;22.10;99.90;;;;;;4974762;28;20097;-71
2022/01/04 09:44:36;;;;;;;12.88;2.10;;;22.10;99.90;;;;;;4975373;28;20035;-70
2022/01/04 09:47:05;;;;;;;5.45;1.27;;;22.00;99.90;;;;;;4975529;28;20482;-70
2022/01/04 09:49:33;;;;;;;6.55;1.52;;;22.00;99.90;;;;;;4975684;28;20081;-70
2022/01/04 09:52:03;;;;;;;7.20;1.60;;;21.90;99.90;;;;;;4975591;28;20025;-71
2022/01/04 09:54:32;;;;;;;9.35;1.73;;;21.90;99.90;;;;;;4975207;28;20464;-70
2022/01/04 09:56:59;;;;;;;7.68;1.42;;;21.90;99.90;;;;;;4975597;28;20081;-69
2022/01/04 09:59:27;;;;;;;6.95;1.33;;;21.80;99.90;;;;;;4974663;28;20109;-69
2022/01/04 10:02:01;;;;;;;5.97;1.70;;;21.80;99.90;;;;;;4974985;28;20038;-70
2022/01/04 10:04:29;;;;;;;15.55;2.17;;;21.80;99.90;;;;;;4974755;28;20035;-71
2022/01/04 10:07:08;;;;;;;8.15;1.83;;;21.70;99.90;;;;;;4975083;28;20027;-71
2022/01/04 10:09:45;;;;;;;14.18;1.55;;;21.70;99.90;;;;;;4975263;28;20035;-72
2022/01/04 10:12:14;;;;;;;6.53;1.48;;;21.80;99.90;;;;;;4975086;28;20106;-71
2022/01/04 10:14:45;;;;;;;8.70;1.70;;;21.80;99.90;;;;;;4974663;28;20027;-71
2022/01/04 10:17:32;;;;;;;8.38;1.35;;;21.90;99.90;;;;;;4973779;28;20426;-70
2022/01/04 10:20:01;;;;;;;14.43;1.55;;;21.80;99.90;;;;;;4974310;28;20479;-70
2022/01/04 10:22:32;;;;;;;5.07;1.77;;;21.90;99.90;;;;;;4974398;28;20029;-70
2022/01/04 10:25:03;;;;;;;4.95;1.88;;;21.80;99.90;;;;;;4976464;28;20058;-71
2022/01/04 10:27:31;;;;;;;8.05;1.38;;;21.80;99.90;;;;;;4974005;28;20500;-70
2022/01/04 10:30:22;;;;;;;8.90;1.58;;;21.80;99.90;;;;;;4974429;28;20047;-72
2022/01/04 10:33:02;;;;;;;9.55;1.33;;;21.70;99.90;;;;;;4974063;28;20031;-70
2022/01/04 10:35:40;;;;;;;6.20;1.05;;;21.70;99.90;;;;;;4973387;28;20022;-69
2022/01/04 10:38:23;;;;;;;9.40;2.17;;;21.70;99.90;;;;;;4973328;28;20022;-69
2022/01/04 10:40:56;;;;;;;8.13;1.85;;;21.80;99.90;;;;;;4974894;28;20045;-70
2022/01/04 10:43:27;;;;;;;14.88;1.63;;;21.80;99.90;;;;;;4975478;28;20041;-69
2022/01/04 10:45:56;;;;;;;11.23;1.50;;;21.70;99.90;;;;;;4973168;28;20054;-71
2022/01/04 10:48:24;;;;;;;5.63;1.58;;;21.70;99.90;;;;;;4973886;28;20480;-69
2022/01/04 10:50:58;;;;;;;5.75;1.85;;;21.70;99.90;;;;;;4973555;28;20034;-70
2022/01/04 10:53:46;;;;;;;5.65;1.05;;;21.70;99.90;;;;;;4973443;28;20351;-71
2022/01/04 10:56:34;;;;;;;5.05;1.00;;;21.60;99.90;;;;;;4973626;28;20035;-68
2022/01/04 10:59:06;;;;;;;8.60;2.03;;;21.50;99.90;;;;;;4973366;28;20110;-71
2022/01/04 11:01:44;;;;;;;4.07;0.93;;;21.40;99.90;;;;;;4973798;28;20033;-68
2022/01/04 11:04:20;;;;;;;6.22;1.23;;;21.40;99.90;;;;;;4973650;28;20559;-71
2022/01/04 11:06:49;;;;;;;8.20;1.50;;;21.40;99.90;;;;;;4972800;28;20360;-71
2022/01/04 11:09:19;;;;;;;3.95;1.13;;;21.30;99.90;;;;;;4973720;28;20027;-71
2022/01/04 11:11:46;;;;;;;3.88;0.75;;;21.30;99.90;;;;;;4973756;28;20015;-71
2022/01/04 11:14:14;;;;;;;6.30;1.13;;;21.30;99.90;;;;;;4973338;28;20038;-72
2022/01/04 11:16:43;;;;;;;4.13;0.90;;;21.30;99.90;;;;;;4973053;28;20019;-72
2022/01/04 11:19:10;;;;;;;7.18;1.67;;;21.30;99.90;;;;;;4971758;28;20102;-71
2022/01/04 11:21:44;;;;;;;7.38;1.42;;;21.20;99.90;;;;;;4973357;28;20015;-70
2022/01/04 11:24:23;;;;;;;7.88;1.08;;;21.30;99.90;;;;;;4973317;28;20049;-70
2022/01/04 11:26:53;;;;;;;8.07;1.27;;;21.20;99.90;;;;;;4972548;28;20039;-70
2022/01/04 11:29:23;;;;;;;5.80;1.50;;;21.20;99.90;;;;;;4973291;28;20391;-71
2022/01/04 11:32:01;;;;;;;5.72;1.33;;;21.20;99.90;;;;;;4973298;28;21696;-70
2022/01/04 11:34:42;;;;;;;5.38;1.15;;;21.20;99.90;;;;;;4972933;28;20919;-70
2022/01/04 11:37:21;;;;;;;5.45;1.30;;;21.10;99.90;;;;;;4973144;28;20476;-71
2022/01/04 11:39:52;;;;;;;4.68;1.15;;;21.10;99.90;;;;;;4975202;28;20468;-71
2022/01/04 11:42:45;;;;;;;3.28;1.00;;;21.10;99.90;;;;;;4974269;28;20107;-70
2022/01/04 11:45:12;;;;;;;7.93;1.58;;;21.10;99.90;;;;;;4974634;28;20049;-72
2022/01/04 11:47:47;;;;;;;8.52;1.70;;;21.00;99.90;;;;;;4994821;28;20530;-72
2022/01/04 11:50:24;;;;;;;5.15;1.67;;;21.00;99.90;;;;;;5002968;28;20072;-69
2022/01/04 11:52:58;;;;;;;5.20;1.27;;;21.00;99.90;;;;;;5000867;28;20113;-75
2022/01/04 11:55:34;;;;;;;5.18;1.75;;;21.00;99.90;;;;;;5006303;28;20018;-70
2022/01/04 11:58:13;;;;;;;4.95;1.52;;;21.00;99.90;;;;;;5006077;28;20045;-72
2022/01/04 12:00:46;;;;;;;7.25;1.30;;;20.90;99.90;;;;;;5008727;28;20095;-74
2022/01/04 12:03:21;;;;;;;6.28;1.40;;;20.90;99.90;;;;;;5017416;28;20049;-74
2022/01/04 12:05:59;;;;;;;8.25;1.30;;;20.90;99.90;;;;;;5017676;28;20112;-74
2022/01/04 12:08:48;;;;;;;5.80;1.30;;;20.90;99.90;;;;;;5017509;28;20041;-75
2022/01/04 12:11:29;;;;;;;9.95;1.88;;;20.90;99.90;;;;;;5017139;28;20099;-72
2022/01/04 12:14:01;;;;;;;6.85;1.10;;;20.90;99.90;;;;;;5015969;28;20026;-73
2022/01/04 12:16:36;;;;;;;6.38;1.83;;;20.90;99.90;;;;;;5017308;28;20021;-74
2022/01/04 12:19:04;;;;;;;;;;;20.90;99.90;;;;;;5017693;28;20421;-74
2022/01/04 12:21:34;;;;;;;5.82;1.02;;;20.90;99.90;;;;;;5017038;28;19905;-73
2022/01/04 12:24:04;;;;;;;3.30;0.98;;;20.90;99.90;;;;;;5017019;28;20064;-74
2022/01/04 12:26:33;;;;;;;3.03;0.90;;;20.80;99.90;;;;;;5016729;28;20073;-71
2022/01/04 12:29:04;;;;;;;8.40;1.33;;;20.80;99.90;;;;;;5016994;28;20502;-72
2022/01/04 12:31:33;;;;;;;8.70;2.10;;;20.80;99.90;;;;;;5016932;28;20038;-74
2022/01/04 12:34:04;;;;;;;6.15;0.93;;;20.80;99.90;;;;;;5016691;28;20033;-73
2022/01/04 12:36:43;;;;;;;4.63;1.42;;;20.70;99.90;;;;;;5016799;28;20068;-75
2022/01/04 12:39:16;;;;;;;6.18;1.95;;;20.70;99.90;;;;;;5016753;28;20026;-73
2022/01/04 12:41:46;;;;;;;2.78;1.27;;;20.60;99.90;;;;;;5016817;28;20530;-74
2022/01/04 12:44:20;;;;;;;9.38;1.60;;;20.60;99.90;;;;;;5016425;28;20034;-73
2022/01/04 12:46:49;;;;;;;4.72;1.30;;;20.50;99.90;;;;;;5016437;28;20022;-75
2022/01/04 12:49:22;;;;;;;5.28;1.00;;;20.40;99.90;;;;;;5016597;28;20122;-73
2022/01/04 12:52:08;;;;;;;8.73;1.30;;;20.40;99.90;;;;;;5016478;28;20111;-73
2022/01/04 12:54:41;;;;;;;7.95;1.08;;;20.40;99.90;;;;;;5016938;28;20164;-74
2022/01/04 12:57:16;;;;;;;6.03;1.10;;;20.40;99.90;;;;;;5016679;28;20049;-72
2022/01/04 12:59:57;;;;;;;2.95;0.73;;;20.50;99.90;;;;;;5015707;28;20033;-72
2022/01/04 13:02:28;;;;;;;6.15;1.45;;;20.50;99.90;;;;;;5016474;28;20471;-73
2022/01/04 13:05:10;;;;;;;8.00;1.23;;;20.60;99.90;;;;;;5016152;28;20034;-74
2022/01/04 13:07:39;;;;;;;12.32;1.50;;;20.60;99.90;;;;;;5016503;28;20018;-72
2022/01/04 13:10:15;;;;;;;4.07;0.88;;;20.70;99.90;;;;;;5016231;28;20386;-73
2022/01/04 13:12:48;;;;;;;4.88;1.35;;;20.70;99.90;;;;;;5016243;28;20018;-73
2022/01/04 13:15:19;;;;;;;6.20;1.48;;;20.70;99.90;;;;;;5015993;28;20471;-71